Time;durP1;ratioP1;P1;durP2;ratioP2;P2;SDS_P1;SDS_P2;PMS_P1;PMS_P2;Temp;Humidity;BMP_temperature;BMP_pressure;BME280_temperature;BME280_humidity;BME280_pressure;Samples;Min_cycle;Max_cycle;Signal;HPM_P1;HPM_P2
2022/09/08 00:01:58;;;;;;;0.10;0.00;;;;;;;13.08;100.00;99922.69;5034996;28;20116;-58
2022/09/08 00:04:24;;;;;;;1.35;0.15;;;;;;;13.07;100.00;99918.41;5033989;28;20115;-56
2022/09/08 00:06:49;;;;;;;0.60;0.28;;;;;;;13.06;100.00;99919.44;5032282;28;20029;-58
2022/09/08 00:09:14;;;;;;;0.43;0.20;;;;;;;13.05;100.00;99919.66;5038615;28;20067;-55
2022/09/08 00:11:40;;;;;;;0.95;0.00;;;;;;;13.02;100.00;99914.78;5033083;28;20079;-57
2022/09/08 00:14:07;;;;;;;0.08;0.00;;;;;;;13.01;100.00;99911.31;5039724;28;20107;-58
2022/09/08 00:16:33;;;;;;;2.75;0.10;;;;;;;13.01;100.00;99902.50;5037645;28;20121;-58
2022/09/08 00:18:59;;;;;;;0.20;0.10;;;;;;;13.01;100.00;99915.81;5039408;28;20104;-58
2022/09/08 00:21:26;;;;;;;1.42;1.02;;;;;;;13.00;100.00;99908.88;5042609;28;20359;-57
2022/09/08 00:23:52;;;;;;;3.25;0.20;;;;;;;13.04;100.00;99918.84;5039329;28;20025;-58
2022/09/08 00:26:19;;;;;;;2.55;1.17;;;;;;;13.07;100.00;99906.94;5039392;28;20063;-57
2022/09/08 00:28:46;;;;;;;0.15;0.00;;;;;;;13.03;100.00;99895.91;5038431;28;20021;-58
2022/09/08 00:31:11;;;;;;;0.70;0.10;;;;;;;13.08;100.00;99895.25;5037539;28;20498;-57
2022/09/08 00:33:37;;;;;;;0.45;0.45;;;;;;;13.04;100.00;99886.13;5038596;28;20032;-56
2022/09/08 00:36:03;;;;;;;0.52;0.13;;;;;;;13.03;100.00;99889.78;5037393;28;21027;-54
2022/09/08 00:38:31;;;;;;;0.30;0.30;;;;;;;12.99;100.00;99885.97;5033824;28;20032;-56
2022/09/08 00:40:57;;;;;;;1.55;0.10;;;;;;;12.99;100.00;99883.28;5037033;28;20033;-57
2022/09/08 00:43:36;;;;;;;2.72;0.13;;;;;;;12.98;100.00;99882.47;5042689;28;20758;-58
2022/09/08 00:46:18;;;;;;;1.42;0.35;;;;;;;12.97;100.00;99885.38;5041902;28;20035;-57
2022/09/08 00:49:02;;;;;;;1.58;0.17;;;;;;;13.01;100.00;99889.19;5042697;28;20025;-58
2022/09/08 00:51:29;;;;;;;4.25;0.15;;;;;;;13.02;100.00;99888.16;5040806;28;20563;-58
2022/09/08 00:53:55;;;;;;;1.73;0.93;;;;;;;13.05;100.00;99893.03;5029636;28;20037;-57
2022/09/08 00:56:22;;;;;;;0.57;0.00;;;;;;;13.07;100.00;99890.97;5037025;28;20104;-57
2022/09/08 00:58:49;;;;;;;0.70;0.10;;;;;;;13.13;100.00;99889.28;5037784;28;20021;-57
2022/09/08 01:01:14;;;;;;;0.25;0.15;;;;;;;13.16;100.00;99886.16;5037208;28;20025;-53
2022/09/08 01:03:42;;;;;;;1.23;0.47;;;;;;;13.19;100.00;99888.38;5036234;28;20320;-60
2022/09/08 01:12:43;;;;;;;1.92;0.47;;;;;;;13.23;100.00;99886.91;5035235;28;20358;-55
2022/09/08 01:14:53;;;;;;;2.08;0.77;;;;;;;13.35;100.00;99887.81;5040087;28;20450;-57
2022/09/08 01:17:21;;;;;;;3.88;1.02;;;;;;;13.38;100.00;99881.25;5040931;28;20025;-55
2022/09/08 01:19:48;;;;;;;6.07;1.60;;;;;;;13.39;100.00;99878.34;5037876;28;20029;-57
2022/09/08 01:22:26;;;;;;;0.22;0.20;;;;;;;13.39;100.00;99882.84;5038562;28;20127;-55
2022/09/08 01:25:20;;;;;;;2.60;0.60;;;;;;;13.40;100.00;99879.97;5034970;28;20121;-58
2022/09/08 01:27:48;;;;;;;4.95;1.35;;;;;;;13.43;100.00;99874.19;5034864;28;20484;-59
2022/09/08 01:30:14;;;;;;;2.08;0.63;;;;;;;13.45;100.00;99879.28;5033842;28;20033;-59
2022/09/08 01:32:42;;;;;;;2.63;0.95;;;;;;;13.45;100.00;99876.63;5032426;28;20032;-58
2022/09/08 01:35:08;;;;;;;6.32;1.08;;;;;;;13.43;100.00;99868.88;5023699;28;20040;-59
2022/09/08 01:37:34;;;;;;;4.15;1.63;;;;;;;13.44;100.00;99872.34;5034205;28;20262;-58
2022/09/08 01:40:00;;;;;;;2.35;0.85;;;;;;;13.46;100.00;99873.75;5030207;28;20029;-57
2022/09/08 01:42:25;;;;;;;0.70;0.70;;;;;;;13.49;100.00;99856.50;5041489;28;20041;-58
2022/09/08 01:44:51;;;;;;;3.00;1.27;;;;;;;13.50;100.00;99864.28;5037873;28;20040;-58
2022/09/08 01:47:16;;;;;;;4.53;1.02;;;;;;;13.53;100.00;99869.16;5036155;28;20037;-55
2022/09/08 01:49:42;;;;;;;2.35;0.60;;;;;;;13.56;100.00;99875.88;5032200;28;20412;-58
2022/09/08 01:52:08;;;;;;;2.08;1.42;;;;;;;13.58;100.00;99870.31;5039021;28;20028;-59
2022/09/08 01:54:34;;;;;;;5.97;2.08;;;;;;;13.59;100.00;99879.94;5033978;28;20033;-56
2022/09/08 01:57:00;;;;;;;1.80;0.95;;;;;;;13.59;100.00;99866.63;5039281;28;20417;-56
2022/09/08 01:59:25;;;;;;;4.68;1.45;;;;;;;13.60;100.00;99869.06;5033401;28;20033;-56
2022/09/08 02:01:51;;;;;;;4.22;0.90;;;;;;;13.60;100.00;99868.25;5031660;28;20469;-55
2022/09/08 02:04:16;;;;;;;3.90;1.77;;;;;;;13.61;100.00;99872.56;5039338;28;20041;-59
2022/09/08 02:06:42;;;;;;;11.38;1.30;;;;;;;13.60;100.00;99874.38;5043011;28;20068;-57
2022/09/08 02:09:08;;;;;;;3.20;0.90;;;;;;;13.61;100.00;99870.69;5038870;28;20033;-58
2022/09/08 02:11:33;;;;;;;4.32;0.80;;;;;;;13.61;100.00;99867.22;5038987;28;20028;-56
2022/09/08 02:13:59;;;;;;;3.80;1.00;;;;;;;13.61;100.00;99864.56;5038884;28;20260;-58
2022/09/08 02:16:25;;;;;;;4.60;1.42;;;;;;;13.63;100.00;99867.78;5034433;28;20056;-54
2022/09/08 02:18:53;;;;;;;2.42;1.13;;;;;;;13.64;100.00;99870.22;5034492;28;20047;-56
2022/09/08 02:21:20;;;;;;;5.65;2.78;;;;;;;13.63;100.00;99860.63;5037006;28;20328;-59
2022/09/08 02:23:48;;;;;;;2.45;1.20;;;;;;;13.64;100.00;99870.22;5046007;28;20032;-58
2022/09/08 02:26:25;;;;;;;2.53;0.98;;;;;;;13.65;100.00;99865.72;5040728;28;20383;-58
2022/09/08 02:28:54;;;;;;;4.53;2.78;;;;;;;13.65;100.00;99866.53;5033170;28;20083;-56
2022/09/08 02:31:21;;;;;;;7.57;0.88;;;;;;;13.65;100.00;99869.19;5032721;28;20025;-56
2022/09/08 02:33:47;;;;;;;1.90;0.68;;;;;;;13.65;100.00;99863.06;5035871;28;20397;-56
2022/09/08 02:36:13;;;;;;;3.80;0.82;;;;;;;13.63;100.00;99862.47;5042059;28;20029;-58
2022/09/08 02:38:38;;;;;;;3.10;1.23;;;;;;;13.61;100.00;99859.22;5040355;28;20021;-59
2022/09/08 02:41:06;;;;;;;1.17;0.68;;;;;;;13.58;100.00;99865.81;5035001;28;20033;-56
2022/09/08 02:43:32;;;;;;;2.90;1.10;;;;;;;13.56;100.00;99873.22;5038856;28;20029;-58
2022/09/08 02:46:05;;;;;;;4.50;1.38;;;;;;;13.56;100.00;99870.56;5043183;28;20482;-59
2022/09/08 02:48:31;;;;;;;3.10;0.40;;;;;;;13.56;100.00;99867.91;5040917;28;20045;-57
2022/09/08 02:51:00;;;;;;;1.13;0.40;;;;;;;13.57;100.00;99871.38;5036841;28;20030;-57
2022/09/08 02:53:28;;;;;;;7.00;1.85;;;;;;;13.55;100.00;99868.91;5037524;28;20032;-59
2022/09/08 02:55:53;;;;;;;0.82;0.50;;;;;;;13.52;100.00;99864.03;5042063;28;20693;-58
2022/09/08 02:58:19;;;;;;;9.15;1.20;;;;;;;13.54;100.00;99875.28;5042342;28;20108;-58
2022/09/08 03:00:44;;;;;;;2.47;0.93;;;;;;;13.50;100.00;99863.44;5030893;28;20056;-58
2022/09/08 03:03:09;;;;;;;5.70;0.95;;;;;;;13.40;100.00;99852.50;5042215;28;20066;-57
2022/09/08 03:05:35;;;;;;;4.10;1.85;;;;;;;13.31;100.00;99868.00;5047160;28;20061;-58
2022/09/08 03:08:03;;;;;;;2.05;1.00;;;;;;;13.25;100.00;99867.03;5036409;28;20039;-57
2022/09/08 03:10:29;;;;;;;4.15;2.33;;;;;;;13.24;100.00;99861.91;5043131;28;20029;-59
2022/09/08 03:12:55;;;;;;;4.72;1.80;;;;;;;13.22;100.00;99866.66;5041990;28;20098;-59
2022/09/08 03:15:23;;;;;;;5.45;1.90;;;;;;;13.17;100.00;99863.84;5040552;28;20489;-57
2022/09/08 03:17:49;;;;;;;5.75;2.67;;;;;;;13.09;100.00;99851.66;5037158;28;20028;-61
2022/09/08 03:20:15;;;;;;;1.80;1.65;;;;;;;13.03;100.00;99857.84;5035190;28;20382;-58
2022/09/08 03:22:41;;;;;;;1.92;1.20;;;;;;;12.96;100.00;99859.75;5041209;28;20539;-58
2022/09/08 03:25:07;;;;;;;1.60;1.48;;;;;;;12.90;100.00;99860.66;5037861;28;20038;-60
2022/09/08 03:27:32;;;;;;;1.58;1.48;;;;;;;12.83;100.00;99853.56;5039698;28;20095;-59
2022/09/08 03:29:58;;;;;;;1.38;1.27;;;;;;;12.83;100.00;99853.56;5039089;28;20037;-58
2022/09/08 03:32:23;;;;;;;3.13;1.98;;;;;;;12.82;100.00;99857.25;5039520;28;20041;-59
2022/09/08 03:34:49;;;;;;;2.08;1.70;;;;;;;12.86;100.00;99852.31;5041316;28;20532;-59
2022/09/08 03:37:14;;;;;;;2.97;0.80;;;;;;;12.93;100.00;99862.88;5039113;28;20092;-59
2022/09/08 03:39:39;;;;;;;2.55;1.40;;;;;;;12.96;100.00;99851.78;5042620;28;20052;-59
2022/09/08 03:42:08;;;;;;;2.83;2.47;;;;;;;12.94;100.00;99852.03;5044649;28;20180;-55
2022/09/08 03:44:34;;;;;;;5.40;3.20;;;;;;;12.92;100.00;99851.44;5033414;28;20041;-58
2022/09/08 03:47:00;;;;;;;3.47;2.00;;;;;;;12.86;100.00;99852.31;5040701;28;20411;-57
2022/09/08 03:49:25;;;;;;;3.65;2.00;;;;;;;12.78;100.00;99849.97;5044055;28;20021;-58
2022/09/08 03:51:51;;;;;;;3.05;1.67;;;;;;;12.72;100.00;99835.66;5040914;28;20032;-57
2022/09/08 03:57:00;;;;;;;3.53;1.35;;;;;;;12.58;100.00;99842.16;5035249;28;20093;-58
2022/09/08 03:59:26;;;;;;;2.58;1.38;;;;;;;12.50;100.00;99840.59;5041256;28;20112;-58
2022/09/08 04:01:53;;;;;;;3.63;1.55;;;;;;;12.46;100.00;99838.59;5037353;28;20421;-58
2022/09/08 04:04:19;;;;;;;1.70;1.55;;;;;;;12.38;100.00;99832.53;5041816;28;20461;-58
2022/09/08 04:06:44;;;;;;;4.88;2.17;;;;;;;12.31;100.00;99828.28;5039727;28;20025;-57
2022/09/08 04:09:10;;;;;;;3.25;1.42;;;;;;;12.24;100.00;99823.06;5036492;28;20484;-56
2022/09/08 04:11:36;;;;;;;1.70;1.25;;;;;;;12.19;100.00;99814.91;5042930;28;20474;-57
2022/09/08 04:14:02;;;;;;;20.67;2.65;;;;;;;12.15;100.00;99814.53;5041435;28;20055;-56
2022/09/08 04:16:27;;;;;;;3.10;1.00;;;;;;;12.05;100.00;99802.75;5040918;28;20608;-57
2022/09/08 04:18:52;;;;;;;1.10;1.00;;;;;;;11.99;100.00;99805.25;5043679;28;20118;-58
2022/09/08 04:21:18;;;;;;;2.58;1.00;;;;;;;11.97;100.00;99804.66;5046166;28;20025;-58
2022/09/08 04:23:43;;;;;;;4.38;1.80;;;;;;;11.95;100.00;99805.91;5042389;28;20025;-58
2022/09/08 04:26:13;;;;;;;3.20;1.70;;;;;;;11.91;100.00;99812.69;5036361;28;20021;-56
2022/09/08 04:28:42;;;;;;;2.10;1.00;;;;;;;11.87;100.00;99811.47;5032387;28;20163;-58
2022/09/08 04:31:11;;;;;;;4.07;1.08;;;;;;;11.86;100.00;99808.00;5042002;28;20474;-57
2022/09/08 04:33:37;;;;;;;2.45;0.90;;;;;;;11.87;100.00;99812.28;5036160;28;20029;-58
2022/09/08 04:36:11;;;;;;;1.30;1.20;;;;;;;11.82;100.00;99804.13;5038253;28;20033;-58
2022/09/08 04:38:37;;;;;;;3.15;1.13;;;;;;;11.85;100.00;99814.34;5038495;28;20029;-57
2022/09/08 04:41:07;;;;;;;1.05;0.60;;;;;;;11.90;100.00;99811.88;5033926;28;20036;-56
2022/09/08 04:43:33;;;;;;;1.83;1.05;;;;;;;11.89;100.00;99799.59;5034115;28;20029;-54
2022/09/08 04:46:04;;;;;;;2.60;1.00;;;;;;;11.86;100.00;99802.69;5036805;28;20055;-56
2022/09/08 04:48:31;;;;;;;3.05;1.65;;;;;;;11.90;100.00;99801.25;5036571;28;20028;-54
2022/09/08 04:50:57;;;;;;;1.73;1.00;;;;;;;11.93;100.00;99805.31;5045755;28;20059;-57
2022/09/08 04:53:24;;;;;;;2.75;1.27;;;;;;;11.92;100.00;99799.16;5035553;28;20040;-57
2022/09/08 04:55:49;;;;;;;1.63;0.88;;;;;;;11.95;100.00;99809.38;5038898;28;20036;-58
2022/09/08 04:58:15;;;;;;;5.63;1.80;;;;;;;11.93;100.00;99811.44;5041872;28;20363;-56
2022/09/08 05:00:40;;;;;;;2.75;0.75;;;;;;;11.93;100.00;99811.44;5039247;28;20037;-57
2022/09/08 05:03:06;;;;;;;1.88;0.95;;;;;;;11.91;100.00;99810.84;5044014;28;20083;-58
2022/09/08 05:05:31;;;;;;;0.77;0.77;;;;;;;11.93;100.00;99813.28;5039137;28;20139;-58
2022/09/08 05:07:57;;;;;;;2.33;1.35;;;;;;;11.93;100.00;99813.28;5035015;28;20061;-58
2022/09/08 05:10:22;;;;;;;1.98;0.73;;;;;;;11.93;100.00;99816.75;5039859;28;20029;-57
2022/09/08 05:12:48;;;;;;;1.73;1.55;;;;;;;11.95;100.00;99819.19;5043767;28;20053;-56
2022/09/08 05:15:13;;;;;;;0.88;0.88;;;;;;;11.98;100.00;99816.91;5042508;28;20033;-58
2022/09/08 05:17:39;;;;;;;1.15;1.05;;;;;;;12.00;100.00;99816.69;5041307;28;20036;-57
2022/09/08 05:20:05;;;;;;;5.35;1.15;;;;;;;11.99;100.00;99815.06;5037206;28;20021;-57
2022/09/08 05:22:31;;;;;;;1.38;0.70;;;;;;;11.99;100.00;99815.88;5043489;28;20036;-55
2022/09/08 05:24:56;;;;;;;1.50;0.98;;;;;;;12.04;100.00;99819.75;5038374;28;20037;-58
2022/09/08 05:27:21;;;;;;;1.98;1.20;;;;;;;12.09;100.00;99814.59;5032756;28;20033;-56
2022/09/08 05:29:47;;;;;;;4.28;1.10;;;;;;;12.16;100.00;99818.81;5041979;28;20060;-58
2022/09/08 05:32:12;;;;;;;2.40;0.85;;;;;;;12.22;100.00;99825.09;5037967;28;20029;-56
2022/09/08 05:34:39;;;;;;;2.83;1.30;;;;;;;12.27;100.00;99827.13;5037212;28;20597;-56
2022/09/08 05:37:04;;;;;;;5.75;1.50;;;;;;;12.28;100.00;99818.91;5034100;28;20028;-55
2022/09/08 05:39:29;;;;;;;4.50;1.35;;;;;;;12.33;100.00;99821.72;5029647;28;20482;-57
2022/09/08 05:41:55;;;;;;;3.67;1.52;;;;;;;12.37;100.00;99812.28;5046543;28;20497;-58
2022/09/08 05:44:20;;;;;;;2.95;1.27;;;;;;;12.38;100.00;99808.59;5036681;28;20118;-57
2022/09/08 05:46:45;;;;;;;6.05;2.38;;;;;;;12.36;100.00;99808.00;5032027;28;20032;-56
2022/09/08 05:49:11;;;;;;;3.20;1.52;;;;;;;12.39;100.00;99788.97;5035516;28;20035;-54
2022/09/08 05:51:36;;;;;;;7.28;1.67;;;;;;;12.39;100.00;99791.63;5029910;28;20116;-57
2022/09/08 05:54:02;;;;;;;3.15;1.10;;;;;;;12.39;100.00;99788.13;5031833;28;20021;-54
2022/09/08 05:56:27;;;;;;;5.00;1.40;;;;;;;12.43;100.00;99787.47;5032043;28;20106;-57
2022/09/08 05:58:57;;;;;;;2.55;0.93;;;;;;;12.47;100.00;99793.19;5037471;28;20025;-54
2022/09/08 06:01:23;;;;;;;4.10;1.80;;;;;;;12.50;100.00;99794.59;5026652;28;20037;-58
2022/09/08 06:03:52;;;;;;;2.53;0.70;;;;;;;12.57;100.00;99790.84;5031676;28;20029;-58
2022/09/08 06:06:18;;;;;;;3.17;1.08;;;;;;;12.63;100.00;99789.94;5034748;28;20478;-56
2022/09/08 06:08:43;;;;;;;3.33;0.98;;;;;;;12.71;100.00;99788.03;5040968;28;20032;-57
2022/09/08 06:11:10;;;;;;;4.63;1.00;;;;;;;12.75;100.00;99782.06;5031231;28;20104;-56
2022/09/08 06:13:36;;;;;;;2.47;0.60;;;;;;;12.79;100.00;99769.91;5034710;28;20144;-56
2022/09/08 06:16:07;;;;;;;4.13;1.50;;;;;;;12.82;100.00;99784.63;5035059;28;20040;-54
2022/09/08 06:18:37;;;;;;;2.35;0.50;;;;;;;12.83;100.00;99787.06;5037951;28;20032;-57
2022/09/08 06:21:13;;;;;;;5.43;1.40;;;;;;;12.88;100.00;99781.06;5035702;28;20593;-56
2022/09/08 06:23:39;;;;;;;1.48;0.95;;;;;;;12.93;100.00;99772.41;5036953;28;20033;-56
2022/09/08 06:26:26;;;;;;;6.22;1.10;;;;;;;12.94;100.00;99780.19;5036982;28;20021;-56
2022/09/08 06:29:13;;;;;;;1.30;0.30;;;;;;;12.93;100.00;99767.91;5036838;28;20048;-59
2022/09/08 06:31:49;;;;;;;6.13;0.57;;;;;;;12.95;100.00;99775.66;5033122;28;20072;-58
2022/09/08 06:34:23;;;;;;;1.50;0.38;;;;;;;12.97;100.00;99778.94;5044278;28;20037;-57
2022/09/08 06:36:52;;;;;;;2.75;0.95;;;;;;;12.98;100.00;99772.56;5036725;28;20066;-57
2022/09/08 06:39:25;;;;;;;2.40;0.47;;;;;;;13.01;100.00;99775.59;5030359;28;20103;-58
2022/09/08 06:42:37;;;;;;;1.23;0.43;;;;;;;13.05;100.00;99776.75;5024768;28;20298;-57
2022/09/08 06:45:09;;;;;;;3.40;0.98;;;;;;;13.07;100.00;99781.88;5015572;28;20049;-57
2022/09/08 06:47:43;;;;;;;1.65;0.25;;;;;;;13.08;100.00;99778.16;5025239;28;20048;-58
2022/09/08 06:50:12;;;;;;;0.73;0.20;;;;;;;13.09;100.00;99777.94;5018028;28;21117;-54
2022/09/08 06:52:45;;;;;;;1.33;0.40;;;;;;;13.09;100.00;99785.13;5033347;28;20025;-58
2022/09/08 06:55:18;;;;;;;5.95;0.35;;;;;;;13.06;100.00;99775.75;5029378;28;20532;-58
2022/09/08 06:58:21;;;;;;;1.73;0.75;;;;;;;13.06;100.00;99789.03;5038551;28;20063;-60
2022/09/08 07:01:15;;;;;;;2.58;0.30;;;;;;;13.09;100.00;99783.28;5033685;28;20382;-60
2022/09/08 07:03:56;;;;;;;0.50;0.25;;;;;;;13.11;100.00;99783.03;5026165;28;20034;-60
2022/09/08 07:06:25;;;;;;;3.40;0.20;;;;;;;13.16;100.00;99782.34;5031880;28;20025;-58
2022/09/08 07:09:07;;;;;;;2.50;0.52;;;;;;;13.20;100.00;99787.00;5032130;28;20091;-59
2022/09/08 07:11:45;;;;;;;3.00;0.70;;;;;;;13.27;100.00;99790.44;5030282;28;20024;-55
2022/09/08 07:14:20;;;;;;;4.47;1.13;;;;;;;13.33;100.00;99786.06;5034437;28;20047;-60
2022/09/08 07:16:55;;;;;;;5.88;0.17;;;;;;;13.40;100.00;99789.44;5027128;28;20389;-58
2022/09/08 07:19:44;;;;;;;0.93;0.17;;;;;;;13.46;100.00;99788.53;5036609;28;20036;-59
2022/09/08 07:22:32;;;;;;;2.17;0.10;;;;;;;13.51;100.00;99787.84;5026971;28;20124;-58
2022/09/08 07:25:22;;;;;;;2.80;0.10;;;;;;;13.54;100.00;99787.41;5025966;28;20041;-60
2022/09/08 07:27:59;;;;;;;3.05;0.08;;;;;;;13.59;100.00;99798.19;5033617;28;20115;-59
2022/09/08 07:30:25;;;;;;;1.30;0.40;;;;;;;13.63;100.00;99787.88;5030384;28;20395;-60
2022/09/08 07:33:05;;;;;;;2.05;0.25;;;;;;;13.67;100.00;99789.88;5043553;28;20026;-60
2022/09/08 07:35:56;;;;;;;2.45;0.50;;;;;;;13.77;100.00;99785.84;5030818;28;20029;-60
2022/09/08 07:38:31;;;;;;;3.45;0.80;;;;;;;13.86;100.00;99781.78;5036462;28;20386;-59
2022/09/08 07:40:56;;;;;;;2.80;0.52;;;;;;;13.98;100.00;99784.47;5033801;28;20032;-60
2022/09/08 07:43:22;;;;;;;4.80;0.63;;;;;;;14.06;100.00;99782.28;5033897;28;20509;-58
2022/09/08 07:45:58;;;;;;;0.75;0.20;;;;;;;14.11;100.00;99787.72;5038501;28;20017;-59
2022/09/08 07:48:42;;;;;;;3.20;0.93;;;;;;;14.22;100.00;99788.78;5036226;28;20201;-60
2022/09/08 07:51:13;;;;;;;4.55;1.27;;;;;;;14.36;100.00;99781.38;5038196;28;20081;-57
2022/09/08 07:53:56;;;;;;;1.23;0.20;;;;;;;14.50;100.00;99781.94;5033883;28;20021;-60
2022/09/08 07:56:41;;;;;;;1.05;0.20;;;;;;;14.67;100.00;99790.06;5037350;28;20037;-59
2022/09/08 07:59:15;;;;;;;6.03;0.63;;;;;;;14.75;100.00;99777.16;5030428;28;20195;-58
2022/09/08 08:02:04;;;;;;;3.17;0.57;;;;;;;14.76;100.00;99768.09;5037107;28;20037;-60
2022/09/08 08:04:56;;;;;;;2.50;0.20;;;;;;;14.99;100.00;99763.75;5041145;28;20204;-61
2022/09/08 08:07:32;;;;;;;;;;;;;;;15.18;100.00;99759.03;5033047;28;20034;-62
2022/09/08 08:10:28;;;;;;;3.70;0.38;;;;;;;15.18;100.00;99756.34;5036010;28;19917;-60
2022/09/08 08:13:18;;;;;;;1.25;0.45;;;;;;;15.13;100.00;99745.63;5036416;28;20059;-61
2022/09/08 08:15:56;;;;;;;2.50;0.52;;;;;;;15.09;100.00;99747.13;5033872;28;20433;-60
2022/09/08 08:18:25;;;;;;;2.22;0.57;;;;;;;15.04;100.00;99751.31;5037084;28;20037;-61
2022/09/08 08:20:58;;;;;;;5.40;0.60;;;;;;;15.10;100.00;99743.41;5037856;28;20045;-59
2022/09/08 08:23:58;;;;;;;4.07;0.75;;;;;;;15.17;100.00;99747.53;5038734;28;20112;-58
2022/09/08 08:27:03;;;;;;;2.10;0.35;;;;;;;15.21;100.00;99739.88;5039202;28;21733;-62
2022/09/08 08:29:48;;;;;;;7.63;1.13;;;;;;;15.35;100.00;99741.19;5031730;28;20159;-60
2022/09/08 08:32:19;;;;;;;1.35;0.10;;;;;;;15.47;100.00;99746.50;5041152;28;20044;-60
2022/09/08 08:35:00;;;;;;;6.72;0.73;;;;;;;15.59;100.00;99741.91;5032787;28;20022;-58
2022/09/08 08:37:31;;;;;;;4.75;0.30;;;;;;;15.60;100.00;99742.69;5039032;28;20501;-59
2022/09/08 08:39:58;;;;;;;4.43;1.63;;;;;;;15.56;100.00;99744.22;5037119;28;20033;-62
2022/09/08 08:42:56;;;;;;;2.17;0.22;;;;;;;15.45;100.00;99744.03;5034585;28;20033;-61
2022/09/08 08:45:52;;;;;;;2.15;0.55;;;;;;;15.25;100.00;99725.00;5045675;28;20124;-61
2022/09/08 08:48:55;;;;;;;2.20;0.75;;;;;;;15.26;100.00;99726.63;5029492;28;20033;-60
2022/09/08 08:51:43;;;;;;;2.53;0.95;;;;;;;15.37;100.00;99733.75;5036369;28;20466;-61
2022/09/08 08:54:38;;;;;;;2.42;0.73;;;;;;;15.55;100.00;99737.25;5043331;28;20029;-61
2022/09/08 08:57:37;;;;;;;0.93;0.70;;;;;;;15.99;100.00;99745.47;5036267;28;20021;-61
2022/09/08 09:00:22;;;;;;;5.70;1.08;;;;;;;16.14;100.00;99741.16;5042823;28;20048;-62
2022/09/08 09:03:17;;;;;;;2.17;1.13;;;;;;;16.15;100.00;99739.28;5038891;28;20025;-60
2022/09/08 09:06:03;;;;;;;4.07;0.82;;;;;;;16.02;100.00;99724.41;5040752;28;20470;-58
2022/09/08 09:08:28;;;;;;;7.68;0.60;;;;;;;15.97;100.00;99726.19;5043653;28;20079;-55
2022/09/08 09:11:21;;;;;;;4.65;0.93;;;;;;;16.07;100.00;99724.47;5043653;28;20025;-61
2022/09/08 09:14:01;;;;;;;7.85;1.63;;;;;;;16.52;100.00;99723.50;5040352;28;20037;-59
2022/09/08 09:17:17;;;;;;;5.82;0.98;;;;;;;17.01;100.00;99722.72;5044182;28;20033;-59
2022/09/08 09:19:48;;;;;;;6.82;1.45;;;;;;;16.81;100.00;99699.25;5037650;28;20050;-59
2022/09/08 09:22:21;;;;;;;;;;;;;;;16.62;100.00;99717.44;5035814;28;20424;-61
2022/09/08 09:25:11;;;;;;;6.32;1.20;;;;;;;16.52;100.00;99717.31;5039194;28;19917;-59
2022/09/08 09:27:46;;;;;;;10.68;0.98;;;;;;;16.84;100.00;99730.84;5034393;28;20124;-61
2022/09/08 09:30:12;;;;;;;10.10;1.38;;;;;;;17.14;100.00;99719.66;5038436;28;20037;-61
2022/09/08 09:32:49;;;;;;;9.65;0.60;;;;;;;17.10;100.00;99705.16;5039621;28;20037;-59
2022/09/08 09:35:30;;;;;;;8.00;1.38;;;;;;;16.89;100.00;99720.19;5036788;28;20037;-59
2022/09/08 09:38:04;;;;;;;4.32;0.80;;;;;;;16.60;100.00;99726.78;5036660;28;20482;-59
2022/09/08 09:40:59;;;;;;;4.00;0.65;;;;;;;16.45;100.00;99732.75;5040903;28;20021;-61
2022/09/08 09:43:49;;;;;;;7.90;0.98;;;;;;;16.39;100.00;99726.50;5036749;28;20497;-61
2022/09/08 09:46:32;;;;;;;8.75;1.23;;;;;;;16.38;100.00;99730.25;5031934;28;20557;-59
2022/09/08 09:49:21;;;;;;;5.30;0.82;;;;;;;16.34;100.00;99729.13;5045431;28;20047;-60
2022/09/08 09:52:06;;;;;;;4.50;0.90;;;;;;;16.24;100.00;99710.28;5039353;28;20025;-61
2022/09/08 09:54:34;;;;;;;1.88;0.52;;;;;;;16.31;100.00;99725.06;5033691;28;20045;-61
2022/09/08 09:57:29;;;;;;;4.30;0.77;;;;;;;16.36;100.00;99725.13;5040549;28;20036;-59
2022/09/08 10:00:13;;;;;;;2.22;0.70;;;;;;;16.38;100.00;99724.09;5035418;28;20053;-61
2022/09/08 10:03:07;;;;;;;1.60;0.77;;;;;;;16.40;100.00;99722.00;5039622;28;20060;-60
2022/09/08 10:06:19;;;;;;;5.97;0.70;;;;;;;16.42;100.00;99727.88;5033038;28;20128;-60
2022/09/08 10:09:18;;;;;;;4.68;0.63;;;;;;;16.50;100.00;99725.59;5037525;28;20040;-60
2022/09/08 10:12:21;;;;;;;3.45;0.73;;;;;;;16.59;100.00;99723.28;5031037;28;20030;-61
2022/09/08 10:15:01;;;;;;;7.97;1.20;;;;;;;16.49;100.00;99713.25;5043115;28;20051;-58
2022/09/08 10:17:41;;;;;;;4.03;0.45;;;;;;;16.49;100.00;99715.94;5036543;28;20064;-60
2022/09/08 10:20:30;;;;;;;4.68;1.17;;;;;;;16.49;100.00;99715.13;5033367;28;20065;-59
2022/09/08 10:23:04;;;;;;;4.88;0.63;;;;;;;16.49;100.00;99715.94;5034456;28;20040;-60
2022/09/08 10:25:47;;;;;;;1.65;0.82;;;;;;;16.55;100.00;99722.19;5045270;28;20025;-59
2022/09/08 10:28:34;;;;;;;1.92;0.55;;;;;;;16.58;100.00;99709.09;5030988;28;20029;-59
2022/09/08 10:31:29;;;;;;;4.60;0.25;;;;;;;16.63;100.00;99707.56;5034573;28;20183;-61
2022/09/08 10:34:00;;;;;;;2.78;0.65;;;;;;;16.72;100.00;99696.16;5025794;28;20477;-59
2022/09/08 10:36:48;;;;;;;6.57;0.52;;;;;;;16.81;100.00;99693.88;5037700;28;20029;-61
2022/09/08 10:39:41;;;;;;;2.30;0.57;;;;;;;16.85;100.00;99680.78;5030602;28;20033;-55
2022/09/08 10:42:15;;;;;;;6.95;1.17;;;;;;;16.85;100.00;99678.13;5038399;28;20386;-59
2022/09/08 10:44:43;;;;;;;5.15;0.65;;;;;;;16.87;100.00;99682.16;5038147;28;20026;-56
2022/09/08 10:47:27;;;;;;;3.33;1.67;;;;;;;16.89;100.00;99674.69;5042187;28;20037;-58
2022/09/08 10:50:09;;;;;;;4.50;0.63;;;;;;;16.97;100.00;99686.81;5034212;28;20148;-57
2022/09/08 10:52:58;;;;;;;2.50;1.08;;;;;;;17.03;100.00;99682.31;5030986;28;20155;-60
2022/09/08 10:55:45;;;;;;;5.47;0.60;;;;;;;17.08;100.00;99679.69;5035062;28;20040;-58
2022/09/08 10:58:36;;;;;;;5.25;1.40;;;;;;;17.18;100.00;99674.44;5030726;28;20029;-61
2022/09/08 11:01:10;;;;;;;5.18;0.75;;;;;;;17.28;100.00;99669.16;5045365;28;20029;-59
2022/09/08 11:03:59;;;;;;;2.55;1.10;;;;;;;17.41;100.00;99671.41;5042450;28;20032;-60
2022/09/08 11:06:50;;;;;;;3.95;0.40;;;;;;;17.57;100.00;99666.97;5041845;28;20132;-61
2022/09/08 11:09:46;;;;;;;4.72;1.50;;;;;;;17.79;100.00;99666.06;5040627;28;20053;-58
2022/09/08 11:12:41;;;;;;;1.52;0.77;;;;;;;17.76;100.00;99669.25;5036498;28;20045;-59
2022/09/08 11:15:18;;;;;;;3.15;1.58;;;;;;;17.50;100.00;99673.63;5029223;28;20049;-63
2022/09/08 11:17:47;;;;;;;3.38;0.80;;;;;;;17.29;100.00;99667.28;5040573;28;20608;-55
2022/09/08 11:20:30;;;;;;;2.45;0.60;;;;;;;17.09;100.00;99668.72;5035813;28;20141;-59
2022/09/08 11:23:14;;;;;;;4.97;1.17;;;;;;;16.87;100.00;99676.00;5039086;28;20201;-55
2022/09/08 11:26:10;;;;;;;6.03;1.48;;;;;;;16.81;100.00;99679.69;5039460;28;20036;-60
2022/09/08 11:28:58;;;;;;;7.68;0.98;;;;;;;16.58;100.00;99686.91;5032809;28;20382;-58
2022/09/08 11:31:41;;;;;;;6.28;1.02;;;;;;;16.36;100.00;99678.84;5029692;28;20112;-60
2022/09/08 11:34:22;;;;;;;5.60;0.88;;;;;;;16.18;100.00;99689.84;5032581;28;20029;-59
2022/09/08 11:37:05;;;;;;;3.50;0.93;;;;;;;16.06;100.00;99696.13;5028616;28;20453;-58
2022/09/08 11:39:52;;;;;;;6.47;1.35;;;;;;;15.94;100.00;99691.94;5030125;28;21538;-60
2022/09/08 11:42:31;;;;;;;12.68;3.33;;;;;;;15.81;100.00;99695.75;5036662;28;20044;-56
2022/09/08 11:45:15;;;;;;;6.78;2.50;;;;;;;15.74;100.00;99695.91;5028035;28;20049;-61
2022/09/08 11:47:48;;;;;;;9.00;4.00;;;;;;;15.68;100.00;99702.22;5035783;28;20474;-54
2022/09/08 11:50:14;;;;;;;4.82;1.50;;;;;;;15.63;100.00;99707.47;5032135;28;20056;-55
2022/09/08 11:52:57;;;;;;;9.95;1.75;;;;;;;15.58;100.00;99710.88;5036474;28;20486;-59
2022/09/08 11:55:46;;;;;;;5.82;1.50;;;;;;;15.56;100.00;99704.16;5031341;28;20038;-56
2022/09/08 11:58:34;;;;;;;6.18;1.55;;;;;;;15.55;100.00;99708.69;5040211;28;20033;-57
2022/09/08 12:01:12;;;;;;;2.40;1.30;;;;;;;15.53;100.00;99709.97;5032699;28;20490;-60
2022/09/08 12:04:05;;;;;;;8.07;0.75;;;;;;;15.56;100.00;99717.50;5040519;28;20028;-58
2022/09/08 12:07:01;;;;;;;10.23;2.00;;;;;;;15.52;100.00;99719.06;5041539;28;20044;-61
2022/09/08 12:09:55;;;;;;;5.75;1.05;;;;;;;15.47;100.00;99717.09;5036655;28;20250;-58